createdAt,value
2019-04-26T00:00:55.964Z,1.50
2019-04-26T00:03:34.322Z,1.30
2019-04-26T00:06:06.020Z,0.87
2019-04-26T00:08:35.745Z,1.20
2019-04-26T00:11:20.593Z,0.90
2019-04-26T00:14:08.652Z,0.87
2019-04-26T00:16:43.756Z,0.83
2019-04-26T00:19:13.853Z,0.90
2019-04-26T00:21:43.933Z,1.03
2019-04-26T00:24:15.187Z,1.13
2019-04-26T00:26:44.660Z,1.00
2019-04-26T00:29:14.785Z,1.10
2019-04-26T00:31:44.169Z,1.10
2019-04-26T00:34:13.923Z,1.27
2019-04-26T00:36:43.805Z,0.97
2019-04-26T00:39:14.281Z,1.10
2019-04-26T00:41:43.832Z,0.90
2019-04-26T00:44:13.858Z,1.00
2019-04-26T00:46:47.938Z,0.90
2019-04-26T00:49:19.131Z,0.80
2019-04-26T00:51:49.948Z,1.40
2019-04-26T00:54:20.183Z,1.23
2019-04-26T00:56:49.753Z,1.13
2019-04-26T00:59:20.525Z,1.37
2019-04-26T01:01:54.700Z,1.23
2019-04-26T01:04:25.062Z,1.37
2019-04-26T01:06:56.814Z,1.57
2019-04-26T01:09:26.613Z,1.57
2019-04-26T01:11:56.041Z,1.10
2019-04-26T01:14:26.217Z,1.10
2019-04-26T01:16:55.649Z,1.40
2019-04-26T01:19:26.540Z,1.47
2019-04-26T01:21:57.827Z,1.50
2019-04-26T01:24:30.770Z,0.97
2019-04-26T01:27:01.684Z,1.23
2019-04-26T01:29:32.348Z,0.93
2019-04-26T01:32:09.725Z,1.17
2019-04-26T01:34:41.933Z,1.37
2019-04-26T01:37:12.485Z,1.40
2019-04-26T01:39:47.651Z,1.33
2019-04-26T01:42:37.282Z,1.07
2019-04-26T01:45:12.057Z,1.23
2019-04-26T01:47:42.389Z,1.13
2019-04-26T01:50:13.844Z,1.20
2019-04-26T01:52:45.306Z,1.20
2019-04-26T01:55:15.139Z,1.57
2019-04-26T01:57:44.368Z,1.20
2019-04-26T02:00:25.480Z,1.30
2019-04-26T02:02:58.170Z,1.47
2019-04-26T02:05:28.022Z,1.57
2019-04-26T02:07:57.456Z,1.47
2019-04-26T02:10:26.761Z,1.17
2019-04-26T02:12:56.447Z,1.40
2019-04-26T02:15:27.305Z,1.43
2019-04-26T02:17:57.528Z,1.30
2019-04-26T02:20:44.701Z,1.40
2019-04-26T02:23:19.953Z,1.57
2019-04-26T02:25:49.231Z,1.80
2019-04-26T02:28:19.416Z,1.40
2019-04-26T02:30:49.226Z,1.47
2019-04-26T02:33:19.553Z,1.67
2019-04-26T02:35:49.346Z,1.70
2019-04-26T02:38:19.808Z,1.30
2019-04-26T02:40:49.829Z,1.43
2019-04-26T02:43:23.133Z,1.53
2019-04-26T02:46:00.060Z,1.50
2019-04-26T02:48:41.660Z,2.10
2019-04-26T02:51:16.940Z,1.60
2019-04-26T02:53:56.798Z,1.40
2019-04-26T02:56:42.804Z,1.63
2019-04-26T02:59:43.326Z,1.53
2019-04-26T03:02:22.998Z,1.23
2019-04-26T03:04:57.142Z,1.37
2019-04-26T03:07:35.810Z,1.73
2019-04-26T03:10:06.704Z,1.30
2019-04-26T03:12:39.341Z,2.03
2019-04-26T03:15:37.091Z,1.40
2019-04-26T03:18:27.253Z,1.90
2019-04-26T03:20:59.956Z,1.47
2019-04-26T03:23:45.522Z,1.97
2019-04-26T03:26:41.542Z,2.03
2019-04-26T03:29:22.110Z,1.60
2019-04-26T03:31:55.606Z,1.77
2019-04-26T03:34:54.568Z,2.10
2019-04-26T03:37:32.572Z,1.90
2019-04-26T03:40:16.444Z,1.70
2019-04-26T03:42:54.333Z,1.70
2019-04-26T03:45:30.149Z,1.77
2019-04-26T03:48:11.894Z,1.90
2019-04-26T03:50:50.146Z,1.93
2019-04-26T03:53:55.473Z,1.80
2019-04-26T03:56:36.047Z,1.50
2019-04-26T03:59:20.843Z,2.73
2019-04-26T04:02:06.877Z,2.23
2019-04-26T04:04:49.650Z,1.63
2019-04-26T04:07:36.122Z,1.70
2019-04-26T04:09:53.733Z,2.00
2019-04-26T04:12:31.313Z,1.73
2019-04-26T04:15:05.702Z,2.00
2019-04-26T04:17:49.921Z,1.97
2019-04-26T04:20:45.914Z,2.07
2019-04-26T04:23:33.528Z,1.53
2019-04-26T04:26:06.479Z,1.60
2019-04-26T04:28:49.919Z,1.53
2019-04-26T04:31:25.170Z,2.30
2019-04-26T04:34:19.296Z,1.70
2019-04-26T04:36:53.764Z,1.60
2019-04-26T04:39:27.773Z,1.77
2019-04-26T04:42:17.420Z,1.90
2019-04-26T04:45:24.954Z,1.67
2019-04-26T04:48:15.589Z,1.43
2019-04-26T04:50:52.589Z,2.00
2019-04-26T04:53:41.219Z,1.93
2019-04-26T04:56:30.592Z,2.10
2019-04-26T04:59:01.585Z,1.80
2019-04-26T05:02:05.156Z,1.70
2019-04-26T05:04:38.088Z,2.10
2019-04-26T05:07:20.718Z,1.67
2019-04-26T05:10:26.196Z,2.17
2019-04-26T05:13:41.384Z,2.00
2019-04-26T05:16:20.466Z,2.27
2019-04-26T05:19:26.749Z,1.53
2019-04-26T05:22:11.017Z,2.50
2019-04-26T05:25:20.301Z,1.57
2019-04-26T05:28:07.529Z,1.90
2019-04-26T05:31:04.212Z,1.50
2019-04-26T05:34:04.198Z,1.70
2019-04-26T05:37:09.757Z,2.07
2019-04-26T05:40:01.114Z,1.70
2019-04-26T05:43:17.429Z,2.23
2019-04-26T05:46:02.658Z,2.03
2019-04-26T05:48:58.165Z,2.20
2019-04-26T05:52:06.297Z,2.20
2019-04-26T05:54:56.172Z,3.13
2019-04-26T05:57:46.441Z,3.57
2019-04-26T06:00:31.319Z,2.97
2019-04-26T06:03:19.920Z,2.57
2019-04-26T06:06:19.005Z,2.23
2019-04-26T06:09:21.733Z,2.03
2019-04-26T06:12:02.832Z,1.70
2019-04-26T06:14:56.821Z,2.00
2019-04-26T06:17:57.283Z,2.00
2019-04-26T06:20:41.864Z,1.60
2019-04-26T06:23:23.458Z,1.33
2019-04-26T06:26:05.061Z,1.77
2019-04-26T06:28:39.688Z,2.27
2019-04-26T06:31:21.832Z,2.63
2019-04-26T06:34:14.537Z,1.40
2019-04-26T06:36:54.803Z,2.03
2019-04-26T06:39:34.956Z,1.37
2019-04-26T06:42:11.152Z,1.90
2019-04-26T06:44:49.076Z,1.77
2019-04-26T06:47:28.072Z,1.67
2019-04-26T06:50:18.917Z,1.93
2019-04-26T06:52:56.726Z,2.10
2019-04-26T06:55:47.084Z,1.67
2019-04-26T06:58:52.954Z,1.83
2019-04-26T07:01:41.553Z,2.80
2019-04-26T07:04:32.868Z,2.67
2019-04-26T07:07:26.005Z,2.00
2019-04-26T07:10:18.718Z,1.80
2019-04-26T07:13:01.697Z,1.77
2019-04-26T07:15:48.164Z,1.83
2019-04-26T07:18:55.013Z,1.53
2019-04-26T07:22:10.966Z,1.93
2019-04-26T07:25:19.548Z,1.93
2019-04-26T07:28:03.761Z,1.53
2019-04-26T07:30:56.944Z,1.87
2019-04-26T07:34:07.294Z,1.97
2019-04-26T07:37:02.928Z,1.80
2019-04-26T07:39:56.502Z,2.10
2019-04-26T07:42:51.537Z,1.63
2019-04-26T07:45:52.833Z,1.87
2019-04-26T07:48:59.397Z,1.97
2019-04-26T07:51:47.976Z,1.67
2019-04-26T07:54:47.372Z,3.13
2019-04-26T07:57:38.346Z,2.20
2019-04-26T08:00:44.193Z,1.80
2019-04-26T08:03:18.499Z,1.83
2019-04-26T08:06:07.391Z,2.23
2019-04-26T08:08:39.569Z,2.00
2019-04-26T08:11:20.348Z,2.20
2019-04-26T08:14:11.160Z,1.80
2019-04-26T08:16:54.009Z,2.00
2019-04-26T08:19:27.003Z,1.50
2019-04-26T08:22:11.395Z,1.83
2019-04-26T08:24:31.782Z,1.60
2019-04-26T08:27:18.891Z,2.07
2019-04-26T08:29:43.632Z,2.60
2019-04-26T08:32:21.945Z,2.07
2019-04-26T08:35:08.158Z,1.80
2019-04-26T08:37:49.861Z,1.30
2019-04-26T08:40:30.101Z,1.80
2019-04-26T08:43:18.258Z,1.80
2019-04-26T08:46:12.980Z,1.50
2019-04-26T08:49:02.157Z,1.20
2019-04-26T08:51:33.148Z,1.70
2019-04-26T08:54:06.084Z,1.63
2019-04-26T08:56:39.873Z,1.33
2019-04-26T08:59:12.584Z,1.80
2019-04-26T09:01:53.048Z,1.57
2019-04-26T09:04:31.328Z,1.27
2019-04-26T09:07:11.306Z,1.40
2019-04-26T09:09:42.297Z,1.27
2019-04-26T09:12:22.435Z,1.20
2019-04-26T09:14:49.306Z,1.53
2019-04-26T09:17:18.662Z,1.27
2019-04-26T09:19:48.040Z,1.67
2019-04-26T09:22:35.333Z,1.40
2019-04-26T09:25:37.069Z,1.10
2019-04-26T09:28:29.744Z,1.00
2019-04-26T09:31:21.149Z,1.10
2019-04-26T09:33:54.553Z,1.00
2019-04-26T09:36:23.980Z,1.20
2019-04-26T09:38:53.280Z,1.20
2019-04-26T09:41:26.500Z,1.20
2019-04-26T09:43:58.931Z,1.43
2019-04-26T09:46:54.802Z,1.10
2019-04-26T09:49:28.241Z,1.10
2019-04-26T09:51:58.316Z,1.07
2019-04-26T09:54:27.653Z,1.07
2019-04-26T09:56:57.406Z,1.10
2019-04-26T09:59:27.207Z,1.13
2019-04-26T10:01:59.416Z,1.10
2019-04-26T10:04:27.572Z,1.50
2019-04-26T10:06:59.411Z,1.20
2019-04-26T10:09:30.923Z,1.30
2019-04-26T10:12:05.696Z,1.40
2019-04-26T10:14:42.205Z,1.50
2019-04-26T10:17:15.626Z,1.47
2019-04-26T10:19:48.987Z,1.10
2019-04-26T10:22:18.937Z,1.90
2019-04-26T10:24:48.808Z,1.03
2019-04-26T10:27:18.713Z,1.20
2019-04-26T10:29:48.565Z,1.40
2019-04-26T10:32:21.644Z,1.20
2019-04-26T10:34:49.840Z,0.90
2019-04-26T10:37:19.125Z,1.03
2019-04-26T10:39:48.813Z,1.10
2019-04-26T10:42:19.069Z,0.80
2019-04-26T10:44:48.951Z,1.37
2019-04-26T10:47:20.024Z,1.07
2019-04-26T10:49:49.529Z,1.00
2019-04-26T10:52:41.677Z,1.10
2019-04-26T10:55:31.372Z,1.30
2019-04-26T10:58:16.490Z,1.00
2019-04-26T11:01:13.674Z,1.10
2019-04-26T11:04:01.827Z,1.17
2019-04-26T11:06:50.153Z,1.07
2019-04-26T11:09:38.101Z,0.80
2019-04-26T11:12:26.204Z,1.00
2019-04-26T11:15:15.121Z,1.20
2019-04-26T11:18:03.744Z,1.23
2019-04-26T11:20:52.589Z,1.17
2019-04-26T11:23:41.038Z,0.80
2019-04-26T11:26:31.090Z,1.00
2019-04-26T11:29:20.404Z,1.00
2019-04-26T11:32:08.843Z,0.90
2019-04-26T11:34:58.655Z,0.90
2019-04-26T11:37:50.638Z,1.00
2019-04-26T11:40:37.646Z,1.20
2019-04-26T11:43:25.805Z,0.80
2019-04-26T11:46:14.269Z,1.07
2019-04-26T11:49:03.272Z,0.90
2019-04-26T11:51:52.209Z,0.93
2019-04-26T11:54:40.653Z,1.00
2019-04-26T11:57:28.949Z,1.50
2019-04-26T12:00:27.538Z,1.03
2019-04-26T12:03:15.112Z,0.80
2019-04-26T12:06:11.788Z,1.30
2019-04-26T12:09:07.652Z,0.90
2019-04-26T12:12:04.496Z,0.90
2019-04-26T12:14:45.688Z,1.10
2019-04-26T12:17:35.182Z,0.87
2019-04-26T12:20:26.778Z,1.13
2019-04-26T12:23:20.406Z,0.87
2019-04-26T12:26:03.202Z,1.10
2019-04-26T12:28:50.902Z,1.47
2019-04-26T12:31:39.345Z,1.23
2019-04-26T12:34:28.708Z,0.77
2019-04-26T12:37:19.895Z,0.70
2019-04-26T12:40:11.153Z,1.03
2019-04-26T12:42:56.860Z,1.00
2019-04-26T12:45:52.576Z,0.90
2019-04-26T12:48:40.729Z,0.87
2019-04-26T12:51:28.844Z,1.00
2019-04-26T12:54:17.173Z,1.10
2019-04-26T12:57:06.182Z,1.30
2019-04-26T12:59:57.544Z,0.80
2019-04-26T13:02:44.864Z,1.23
2019-04-26T13:05:32.309Z,0.80
2019-04-26T13:08:20.378Z,1.07
2019-04-26T13:11:26.916Z,0.70
2019-04-26T13:14:25.041Z,0.93
2019-04-26T13:17:16.701Z,0.70
2019-04-26T13:20:05.457Z,0.63
2019-04-26T13:22:54.343Z,0.80
2019-04-26T13:25:43.241Z,0.80
2019-04-26T13:28:32.083Z,0.63
2019-04-26T13:31:20.336Z,1.07
2019-04-26T13:34:08.849Z,0.80
2019-04-26T13:36:59.194Z,0.67
2019-04-26T13:39:47.497Z,0.80
2019-04-26T13:42:35.385Z,0.73
2019-04-26T13:45:38.096Z,1.20
2019-04-26T13:48:54.268Z,0.83
2019-04-26T13:51:42.316Z,0.80
2019-04-26T13:54:30.272Z,1.20
2019-04-26T13:57:18.581Z,1.20
2019-04-26T14:00:11.401Z,0.90
2019-04-26T14:02:56.764Z,1.00
2019-04-26T14:05:44.517Z,0.67
2019-04-26T14:08:32.561Z,0.70
2019-04-26T14:11:27.957Z,0.80
2019-04-26T14:14:10.412Z,0.60
2019-04-26T14:16:57.976Z,0.80
2019-04-26T14:19:49.507Z,0.80
2019-04-26T14:22:42.420Z,0.50
2019-04-26T14:25:37.273Z,0.90
2019-04-26T14:28:25.356Z,0.70
2019-04-26T14:31:16.362Z,0.63
2019-04-26T14:34:05.392Z,0.80
2019-04-26T14:37:05.524Z,0.90
2019-04-26T14:39:50.003Z,0.70
2019-04-26T14:42:35.256Z,0.70
2019-04-26T14:45:23.861Z,0.87
2019-04-26T14:48:20.719Z,1.00
2019-04-26T14:51:08.075Z,1.00
2019-04-26T14:53:52.224Z,0.80
2019-04-26T14:56:51.722Z,1.20
2019-04-26T14:59:53.571Z,0.83
2019-04-26T15:02:55.829Z,1.00
2019-04-26T15:05:49.906Z,0.90
2019-04-26T15:08:40.616Z,1.30
2019-04-26T15:11:27.630Z,0.63
2019-04-26T15:14:19.428Z,0.97
2019-04-26T15:17:05.049Z,0.90
2019-04-26T15:19:53.895Z,1.17
2019-04-26T15:22:24.438Z,0.93
2019-04-26T15:24:54.581Z,1.50
2019-04-26T15:27:24.399Z,0.93
2019-04-26T15:29:57.179Z,0.87
2019-04-26T15:32:28.032Z,1.10
2019-04-26T15:34:58.586Z,1.10
2019-04-26T15:37:29.064Z,0.87
2019-04-26T15:40:13.701Z,0.73
2019-04-26T15:43:00.834Z,0.90
2019-04-26T15:45:42.417Z,0.87
2019-04-26T15:48:23.037Z,0.80
2019-04-26T15:50:53.922Z,1.10
2019-04-26T15:53:24.192Z,0.80
2019-04-26T15:55:54.368Z,1.30
2019-04-26T15:58:24.536Z,1.03
2019-04-26T16:00:54.721Z,1.67
2019-04-26T16:03:24.441Z,1.10
2019-04-26T16:05:54.529Z,0.73
2019-04-26T16:08:43.902Z,1.13
2019-04-26T16:11:32.098Z,1.10
2019-04-26T16:14:20.424Z,1.83
2019-04-26T16:17:08.127Z,1.17
2019-04-26T16:19:38.201Z,1.20
2019-04-26T16:22:08.133Z,1.10
2019-04-26T16:24:38.372Z,1.10
2019-04-26T16:27:10.620Z,1.07
2019-04-26T16:30:15.160Z,1.03
2019-04-26T16:33:03.056Z,1.30
2019-04-26T16:35:33.377Z,1.00
2019-04-26T16:38:22.483Z,1.13
2019-04-26T16:40:54.991Z,1.07
2019-04-26T16:43:36.399Z,1.07
2019-04-26T16:45:56.109Z,1.30
2019-04-26T16:48:25.996Z,1.13
2019-04-26T16:50:56.188Z,0.90
2019-04-26T16:55:57.065Z,2.77
2019-04-26T16:58:30.891Z,1.63
2019-04-26T17:00:32.162Z,1.40
2019-04-26T17:00:58.593Z,2.90
2019-04-26T17:03:28.517Z,2.47
2019-04-26T17:06:05.220Z,2.87
2019-04-26T17:08:30.009Z,1.10
2019-04-26T17:11:00.686Z,1.60
2019-04-26T17:13:34.784Z,2.13
2019-04-26T17:16:03.353Z,1.60
2019-04-26T17:18:33.181Z,1.40
2019-04-26T17:21:03.144Z,1.80
2019-04-26T17:23:53.296Z,1.60
2019-04-26T17:26:29.276Z,1.80
2019-04-26T17:28:59.888Z,2.37
2019-04-26T17:31:29.358Z,0.73
2019-04-26T17:33:58.656Z,1.43
2019-04-26T17:36:28.564Z,1.47
2019-04-26T17:38:58.479Z,1.23
2019-04-26T17:41:28.912Z,2.23
2019-04-26T17:44:07.955Z,1.23
2019-04-26T17:46:32.440Z,1.00
2019-04-26T17:49:01.665Z,1.50
2019-04-26T17:51:41.571Z,0.90
2019-04-26T17:54:25.952Z,1.20
2019-04-26T17:56:37.581Z,0.70
2019-04-26T17:59:09.320Z,1.17
2019-04-26T18:01:45.276Z,1.20
2019-04-26T18:04:08.927Z,1.30
2019-04-26T18:06:40.330Z,1.40
2019-04-26T18:09:37.678Z,1.60
2019-04-26T18:11:43.128Z,1.10
2019-04-26T18:14:21.366Z,1.63
2019-04-26T18:16:48.068Z,1.10
2019-04-26T18:19:31.306Z,0.97
2019-04-26T18:22:28.491Z,2.33
2019-04-26T18:24:58.616Z,4.67
2019-04-26T18:27:29.914Z,3.97
2019-04-26T18:30:06.664Z,2.07
2019-04-26T18:32:36.822Z,1.43
2019-04-26T18:35:02.781Z,1.00
2019-04-26T18:37:36.501Z,1.00
2019-04-26T18:40:04.659Z,0.90
2019-04-26T18:42:37.566Z,0.93
2019-04-26T18:45:06.265Z,0.77
2019-04-26T18:47:39.241Z,1.00
2019-04-26T18:50:09.408Z,1.00
2019-04-26T18:52:45.052Z,1.53
2019-04-26T18:55:30.123Z,5.00
2019-04-26T18:58:01.791Z,4.13
2019-04-26T19:00:35.000Z,8.07
2019-04-26T19:03:05.415Z,9.77
2019-04-26T19:05:34.840Z,8.17
2019-04-26T19:08:07.367Z,15.10
2019-04-26T19:10:36.768Z,7.67
2019-04-26T19:13:18.450Z,3.03
2019-04-26T19:15:57.716Z,1.13
2019-04-26T19:18:42.420Z,1.20
2019-04-26T19:21:23.147Z,1.07
2019-04-26T19:24:04.949Z,1.00
2019-04-26T19:26:32.465Z,1.10
2019-04-26T19:28:54.908Z,1.57
2019-04-26T19:31:27.110Z,1.20
2019-04-26T19:33:56.372Z,0.80
2019-04-26T19:36:29.106Z,0.97
2019-04-26T19:38:57.397Z,1.10
2019-04-26T19:41:27.236Z,1.20
2019-04-26T19:43:57.401Z,1.00
2019-04-26T19:46:44.300Z,1.23
2019-04-26T19:49:36.779Z,1.30
2019-04-26T19:52:25.788Z,1.57
2019-04-26T19:55:11.390Z,1.97
2019-04-26T19:57:51.967Z,1.87
2019-04-26T20:00:21.809Z,2.17
2019-04-26T20:02:52.353Z,1.80
2019-04-26T20:05:22.559Z,2.77
2019-04-26T20:07:52.018Z,1.63
2019-04-26T20:10:23.232Z,1.40
2019-04-26T20:12:53.372Z,1.23
2019-04-26T20:15:26.707Z,1.03
2019-04-26T20:17:59.517Z,1.10
2019-04-26T20:20:27.800Z,1.17
2019-04-26T20:22:59.319Z,1.33
2019-04-26T20:25:29.994Z,3.13
2019-04-26T20:28:00.939Z,3.77
2019-04-26T20:30:51.515Z,8.53
2019-04-26T20:33:22.424Z,6.13
2019-04-26T20:35:52.392Z,5.00
2019-04-26T20:38:22.085Z,5.73
2019-04-26T20:40:53.323Z,2.00
2019-04-26T20:43:26.403Z,1.90
2019-04-26T20:46:10.895Z,1.10
2019-04-26T20:48:25.673Z,1.53
2019-04-26T20:50:55.694Z,1.70
2019-04-26T20:53:24.969Z,2.17
2019-04-26T20:55:54.721Z,1.70
2019-04-26T20:58:24.544Z,2.03
2019-04-26T21:00:54.804Z,1.30
2019-04-26T21:03:27.783Z,1.30
2019-04-26T21:05:59.265Z,1.10
2019-04-26T21:08:27.452Z,1.60
2019-04-26T21:11:00.257Z,1.23
2019-04-26T21:13:30.877Z,0.90
2019-04-26T21:16:03.481Z,1.10
2019-04-26T21:18:33.632Z,0.77
2019-04-26T21:21:01.580Z,1.00
2019-04-26T21:23:33.627Z,1.10
2019-04-26T21:26:21.645Z,1.00
2019-04-26T21:29:03.192Z,0.90
2019-04-26T21:32:03.768Z,0.80
2019-04-26T21:34:35.426Z,0.90
2019-04-26T21:37:22.668Z,0.90
2019-04-26T21:39:59.021Z,1.00
2019-04-26T21:42:28.782Z,1.33
2019-04-26T21:44:58.185Z,2.03
2019-04-26T21:47:31.818Z,1.20
2019-04-26T21:50:00.717Z,0.93
2019-04-26T21:52:30.247Z,1.30
2019-04-26T21:54:59.517Z,1.90
2019-04-26T21:57:31.634Z,1.87
2019-04-26T22:00:00.260Z,2.40
2019-04-26T22:02:34.019Z,2.23
2019-04-26T22:05:00.693Z,1.33
2019-04-26T22:07:30.884Z,1.67
2019-04-26T22:10:23.480Z,1.87
2019-04-26T22:12:53.953Z,1.50
2019-04-26T22:15:37.522Z,1.57
2019-04-26T22:18:14.920Z,1.67
2019-04-26T22:20:52.817Z,3.30
2019-04-26T22:23:43.539Z,1.77
2019-04-26T22:26:14.266Z,1.27
2019-04-26T22:28:44.102Z,2.10
2019-04-26T22:31:13.818Z,1.77
2019-04-26T22:33:44.533Z,2.33
2019-04-26T22:36:14.502Z,2.27
2019-04-26T22:38:44.413Z,1.83
2019-04-26T22:41:14.288Z,2.77
2019-04-26T22:44:03.862Z,3.20
2019-04-26T22:47:03.595Z,2.67
2019-04-26T22:49:35.047Z,3.60
2019-04-26T22:52:06.299Z,2.77
2019-04-26T22:54:37.631Z,2.10
2019-04-26T22:57:08.131Z,2.93
2019-04-26T22:59:42.123Z,2.00
2019-04-26T23:02:13.673Z,2.30
2019-04-26T23:04:43.124Z,2.83
2019-04-26T23:07:13.591Z,2.57
2019-04-26T23:09:45.731Z,2.77
2019-04-26T23:12:27.884Z,3.43
2019-04-26T23:15:04.814Z,3.47
2019-04-26T23:17:59.372Z,2.43
2019-04-26T23:20:37.851Z,2.00
2019-04-26T23:23:08.610Z,2.23
2019-04-26T23:25:38.089Z,2.30
2019-04-26T23:28:08.025Z,2.10
2019-04-26T23:30:38.012Z,1.57
2019-04-26T23:33:07.823Z,1.30
2019-04-26T23:35:43.527Z,1.47
2019-04-26T23:38:08.740Z,1.70
2019-04-26T23:40:38.220Z,1.73
2019-04-26T23:43:08.010Z,2.80
2019-04-26T23:45:41.988Z,3.93
2019-04-26T23:48:12.087Z,1.53
2019-04-26T23:50:40.445Z,1.40
2019-04-26T23:53:13.869Z,1.40
2019-04-26T23:55:45.247Z,1.80
2019-04-26T23:58:14.801Z,1.50
